DAL879 KPDX-KATL
Flight info
| Callsign | DAL879 |
|---|---|
| Flight time | 4h 7m |
| Altitude | 33000 |
| Route | LAVAA7 PDT LKT KD69A/N0452F350 PWE DRIVL FAM BNA NEWBB IHAVE MTHEW CHPPR1 |
| Aircraft | A21N/M-SDE3FGHIRWY/LB1 |
Departure
| Time | 2026-05-05 00:18 |
|---|---|
| Airport | Portland International Airport (KPDX) |
Arrival
| Time | 2026-05-05 04:25 |
|---|---|
| Airport | Hartsfield Jackson Atlanta International Airport (KATL) |
| Time | Latitude | Longitude | Altitude | Speed | Heading |
|---|---|---|---|---|---|
| 2026-05-05 00:02 | 45.59103 | -122.59350 | 44 ft | 0 kts | 207° |
| 2026-05-05 00:07 | 45.59110 | -122.59345 | 44 ft | 2 kts | 207° |
| 2026-05-05 00:07 | 45.59124 | -122.59335 | 44 ft | 2 kts | 207° |
| 2026-05-05 00:07 | 45.59137 | -122.59324 | 44 ft | 2 kts | 208° |
| 2026-05-05 00:08 | 45.59145 | -122.59318 | 44 ft | 1 kts | 208° |
| 2026-05-05 00:08 | 45.59160 | -122.59312 | 44 ft | 2 kts | 172° |
| 2026-05-05 00:08 | 45.59174 | -122.59319 | 44 ft | 2 kts | 141° |
| 2026-05-05 00:08 | 45.59181 | -122.59330 | 44 ft | 1 kts | 120° |
| 2026-05-05 00:09 | 45.59185 | -122.59338 | 44 ft | 0 kts | 118° |
| 2026-05-05 00:11 | 45.59184 | -122.59338 | 44 ft | 0 kts | 118° |
| 2026-05-05 00:11 | 45.59175 | -122.59313 | 44 ft | 4 kts | 118° |
| 2026-05-05 00:12 | 45.59147 | -122.59244 | 44 ft | 11 kts | 119° |
| 2026-05-05 00:12 | 45.59101 | -122.59126 | 44 ft | 15 kts | 118° |
| 2026-05-05 00:12 | 45.59045 | -122.58984 | 44 ft | 16 kts | 118° |
| 2026-05-05 00:12 | 45.59029 | -122.58824 | 44 ft | 15 kts | 88° |
| 2026-05-05 00:13 | 45.59009 | -122.58672 | 44 ft | 15 kts | 117° |
| 2026-05-05 00:13 | 45.58957 | -122.58540 | 44 ft | 15 kts | 119° |
| 2026-05-05 00:13 | 45.58905 | -122.58410 | 44 ft | 15 kts | 119° |
| 2026-05-05 00:13 | 45.58844 | -122.58257 | 44 ft | 20 kts | 119° |
| 2026-05-05 00:14 | 45.58777 | -122.58083 | 44 ft | 19 kts | 118° |
| 2026-05-05 00:14 | 45.58712 | -122.57913 | 44 ft | 18 kts | 119° |
| 2026-05-05 00:14 | 45.58649 | -122.57753 | 44 ft | 18 kts | 118° |
| 2026-05-05 00:14 | 45.58589 | -122.57597 | 44 ft | 17 kts | 118° |
| 2026-05-05 00:15 | 45.58530 | -122.57447 | 44 ft | 17 kts | 119° |
| 2026-05-05 00:15 | 45.58473 | -122.57302 | 44 ft | 16 kts | 119° |
| 2026-05-05 00:15 | 45.58408 | -122.57137 | 44 ft | 25 kts | 118° |
| 2026-05-05 00:15 | 45.58345 | -122.56966 | 44 ft | 7 kts | 109° |
| 2026-05-05 00:16 | 45.58356 | -122.56893 | 44 ft | 9 kts | 39° |
| 2026-05-05 00:16 | 45.58425 | -122.56873 | 44 ft | 8 kts | 332° |
| 2026-05-05 00:16 | 45.58438 | -122.56894 | 44 ft | 0 kts | 301° |
| 2026-05-05 00:17 | 45.58487 | -122.57016 | 44 ft | 46 kts | 298° |
| 2026-05-05 00:17 | 45.58760 | -122.57719 | 44 ft | 113 kts | 299° |
| 2026-05-05 00:17 | 45.59244 | -122.58966 | 45 ft | 169 kts | 298° |
| 2026-05-05 00:17 | 45.59856 | -122.60548 | 356 ft | 187 kts | 298° |
| 2026-05-05 00:18 | 45.60481 | -122.62112 | 1116 ft | 181 kts | 299° |
| 2026-05-05 00:18 | 45.61084 | -122.63666 | 1811 ft | 179 kts | 297° |
| 2026-05-05 00:18 | 45.61536 | -122.65338 | 2180 ft | 187 kts | 284° |
| 2026-05-05 00:18 | 45.61915 | -122.67185 | 2452 ft | 200 kts | 291° |
| 2026-05-05 00:19 | 45.62535 | -122.69035 | 2719 ft | 214 kts | 297° |
| 2026-05-05 00:19 | 45.63292 | -122.70999 | 2930 ft | 234 kts | 299° |
| 2026-05-05 00:19 | 45.64117 | -122.73060 | 3234 ft | 250 kts | 300° |
| 2026-05-05 00:19 | 45.65011 | -122.75272 | 3720 ft | 258 kts | 300° |
| 2026-05-05 00:20 | 45.65972 | -122.77465 | 4353 ft | 261 kts | 310° |
| 2026-05-05 00:20 | 45.67430 | -122.78965 | 4960 ft | 264 kts | 339° |
| 2026-05-05 00:20 | 45.69237 | -122.79334 | 5598 ft | 267 kts | 5° |
| 2026-05-05 00:20 | 45.71031 | -122.78487 | 6241 ft | 271 kts | 27° |
| 2026-05-05 00:21 | 45.72685 | -122.77123 | 6848 ft | 274 kts | 28° |
| 2026-05-05 00:21 | 45.74339 | -122.75665 | 7169 ft | 280 kts | 38° |
| 2026-05-05 00:21 | 45.75505 | -122.73462 | 7799 ft | 285 kts | 65° |
| 2026-05-05 00:21 | 45.75871 | -122.70721 | 8487 ft | 287 kts | 88° |
| 2026-05-05 00:22 | 45.75821 | -122.67822 | 9135 ft | 288 kts | 89° |
| 2026-05-05 00:22 | 45.75765 | -122.64856 | 9743 ft | 290 kts | 89° |
| 2026-05-05 00:22 | 45.75717 | -122.61952 | 10304 ft | 293 kts | 89° |
| 2026-05-05 00:22 | 45.75676 | -122.58969 | 10585 ft | 307 kts | 88° |
| 2026-05-05 00:23 | 45.75638 | -122.55887 | 10834 ft | 320 kts | 88° |
| 2026-05-05 00:23 | 45.75599 | -122.52640 | 11080 ft | 334 kts | 88° |
| 2026-05-05 00:23 | 45.75559 | -122.49222 | 11322 ft | 347 kts | 88° |
| 2026-05-05 00:23 | 45.75517 | -122.45736 | 11597 ft | 358 kts | 89° |
| 2026-05-05 00:24 | 45.75473 | -122.42127 | 12069 ft | 363 kts | 88° |
| 2026-05-05 00:24 | 45.75426 | -122.38547 | 12593 ft | 364 kts | 88° |
| 2026-05-05 00:24 | 45.75378 | -122.34898 | 13135 ft | 366 kts | 89° |
| 2026-05-05 00:24 | 45.75331 | -122.31273 | 13646 ft | 369 kts | 89° |
| 2026-05-05 00:25 | 45.75281 | -122.27584 | 14134 ft | 372 kts | 89° |
| 2026-05-05 00:25 | 45.75232 | -122.23858 | 14583 ft | 374 kts | 89° |
| 2026-05-05 00:25 | 45.75180 | -122.20116 | 15034 ft | 377 kts | 89° |
| 2026-05-05 00:25 | 45.75127 | -122.16353 | 15475 ft | 379 kts | 88° |
| 2026-05-05 00:26 | 45.75072 | -122.12569 | 15893 ft | 382 kts | 88° |
| 2026-05-05 00:26 | 45.75017 | -122.08785 | 16320 ft | 384 kts | 88° |
| 2026-05-05 00:26 | 45.74959 | -122.04991 | 16735 ft | 386 kts | 88° |
| 2026-05-05 00:26 | 45.74900 | -122.01122 | 17131 ft | 388 kts | 88° |
| 2026-05-05 00:27 | 45.74840 | -121.97304 | 17529 ft | 390 kts | 88° |
| 2026-05-05 00:27 | 45.74778 | -121.93379 | 17920 ft | 393 kts | 88° |
| 2026-05-05 00:27 | 45.74712 | -121.89481 | 18298 ft | 396 kts | 88° |
| 2026-05-05 00:27 | 45.74647 | -121.85512 | 18690 ft | 398 kts | 88° |
| 2026-05-05 00:28 | 45.74612 | -121.81538 | 19086 ft | 399 kts | 86° |
| 2026-05-05 00:28 | 45.74596 | -121.77614 | 19444 ft | 401 kts | 86° |
| 2026-05-05 00:28 | 45.74582 | -121.73590 | 19823 ft | 403 kts | 86° |
| 2026-05-05 00:28 | 45.74565 | -121.69583 | 20188 ft | 405 kts | 86° |
| 2026-05-05 00:29 | 45.74545 | -121.65543 | 20536 ft | 407 kts | 86° |
| 2026-05-05 00:29 | 45.74526 | -121.61527 | 20883 ft | 409 kts | 86° |
| 2026-05-05 00:29 | 45.74501 | -121.57404 | 21219 ft | 411 kts | 86° |
| 2026-05-05 00:29 | 45.74477 | -121.53326 | 21556 ft | 412 kts | 86° |
| 2026-05-05 00:30 | 45.74450 | -121.49240 | 21882 ft | 414 kts | 86° |
| 2026-05-05 00:30 | 45.74420 | -121.45084 | 22199 ft | 416 kts | 86° |
| 2026-05-05 00:30 | 45.74390 | -121.40992 | 22511 ft | 417 kts | 86° |
| 2026-05-05 00:30 | 45.74357 | -121.36815 | 22805 ft | 419 kts | 86° |
| 2026-05-05 00:31 | 45.74322 | -121.32597 | 23085 ft | 422 kts | 87° |
| 2026-05-05 00:31 | 45.74284 | -121.28394 | 23368 ft | 423 kts | 87° |
| 2026-05-05 00:31 | 45.74246 | -121.24213 | 23659 ft | 425 kts | 87° |
| 2026-05-05 00:31 | 45.74207 | -121.19991 | 23954 ft | 426 kts | 87° |
| 2026-05-05 00:32 | 45.74165 | -121.15715 | 24246 ft | 427 kts | 87° |
| 2026-05-05 00:32 | 45.74122 | -121.11496 | 24516 ft | 428 kts | 86° |
| 2026-05-05 00:32 | 45.74077 | -121.07192 | 24768 ft | 430 kts | 86° |
| 2026-05-05 00:32 | 45.74032 | -121.02937 | 25019 ft | 432 kts | 86° |
| 2026-05-05 00:33 | 45.73983 | -120.98623 | 25261 ft | 433 kts | 86° |
| 2026-05-05 00:33 | 45.73933 | -120.94346 | 25503 ft | 434 kts | 86° |
| 2026-05-05 00:33 | 45.73882 | -120.90006 | 25730 ft | 436 kts | 86° |
| 2026-05-05 00:33 | 45.73828 | -120.85671 | 25939 ft | 437 kts | 86° |
| 2026-05-05 00:34 | 45.73772 | -120.81322 | 26166 ft | 438 kts | 86° |
| 2026-05-05 00:34 | 45.73716 | -120.76974 | 26403 ft | 439 kts | 86° |
| 2026-05-05 00:34 | 45.73656 | -120.72603 | 26613 ft | 440 kts | 86° |
| 2026-05-05 00:34 | 45.73596 | -120.68223 | 26833 ft | 441 kts | 86° |
| 2026-05-05 00:35 | 45.73534 | -120.63837 | 27034 ft | 442 kts | 86° |
| 2026-05-05 00:35 | 45.73470 | -120.59465 | 27220 ft | 444 kts | 86° |
| 2026-05-05 00:35 | 45.73403 | -120.54996 | 27405 ft | 445 kts | 86° |
| 2026-05-05 00:35 | 45.73336 | -120.50611 | 27592 ft | 446 kts | 86° |
| 2026-05-05 00:36 | 45.73266 | -120.46149 | 27846 ft | 446 kts | 86° |
| 2026-05-05 00:36 | 45.73191 | -120.41713 | 28161 ft | 444 kts | 85° |
| 2026-05-05 00:36 | 45.73118 | -120.37331 | 28434 ft | 443 kts | 85° |
| 2026-05-05 00:36 | 45.73042 | -120.32903 | 28680 ft | 443 kts | 86° |
| 2026-05-05 00:37 | 45.72965 | -120.28444 | 28944 ft | 442 kts | 86° |
| 2026-05-05 00:37 | 45.72889 | -120.24070 | 29197 ft | 442 kts | 86° |
| 2026-05-05 00:37 | 45.72810 | -120.19667 | 29447 ft | 441 kts | 86° |
| 2026-05-05 00:37 | 45.72729 | -120.15288 | 29744 ft | 440 kts | 86° |
| 2026-05-05 00:38 | 45.72646 | -120.10931 | 30040 ft | 438 kts | 86° |
| 2026-05-05 00:38 | 45.72560 | -120.06567 | 30299 ft | 438 kts | 85° |
| 2026-05-05 00:38 | 45.72476 | -120.02253 | 30538 ft | 437 kts | 85° |
| 2026-05-05 00:38 | 45.72389 | -119.97875 | 30847 ft | 435 kts | 85° |
| 2026-05-05 00:39 | 45.72301 | -119.93597 | 31124 ft | 434 kts | 85° |
| 2026-05-05 00:39 | 45.72213 | -119.89290 | 31340 ft | 434 kts | 85° |
| 2026-05-05 00:39 | 45.72122 | -119.84953 | 31522 ft | 434 kts | 85° |
| 2026-05-05 00:39 | 45.72029 | -119.80648 | 31720 ft | 435 kts | 85° |
| 2026-05-05 00:40 | 45.71934 | -119.76314 | 31887 ft | 436 kts | 85° |
| 2026-05-05 00:40 | 45.71837 | -119.71979 | 32069 ft | 436 kts | 85° |
| 2026-05-05 00:40 | 45.71739 | -119.67687 | 32295 ft | 435 kts | 85° |
| 2026-05-05 00:40 | 45.71639 | -119.63350 | 32498 ft | 435 kts | 85° |
| 2026-05-05 00:41 | 45.71537 | -119.59061 | 32687 ft | 435 kts | 85° |
| 2026-05-05 00:41 | 45.71331 | -119.50394 | 32788 ft | 436 kts | 85° |
| 2026-05-05 00:42 | 45.71118 | -119.41732 | 32788 ft | 437 kts | 85° |
| 2026-05-05 00:42 | 45.70898 | -119.33060 | 32785 ft | 438 kts | 85° |
| 2026-05-05 00:43 | 45.70668 | -119.24316 | 32785 ft | 439 kts | 85° |
| 2026-05-05 00:43 | 45.70435 | -119.15642 | 32791 ft | 439 kts | 85° |
| 2026-05-05 00:44 | 45.70193 | -119.06928 | 32802 ft | 437 kts | 85° |
| 2026-05-05 00:44 | 45.69942 | -118.98259 | 32812 ft | 439 kts | 86° |
| 2026-05-05 00:45 | 45.69307 | -118.89537 | 32825 ft | 445 kts | 92° |
| 2026-05-05 00:45 | 45.68275 | -118.80743 | 32828 ft | 446 kts | 92° |
| 2026-05-05 00:46 | 45.67234 | -118.72013 | 32837 ft | 446 kts | 92° |
| 2026-05-05 00:46 | 45.66198 | -118.63338 | 32857 ft | 446 kts | 92° |
| 2026-05-05 00:47 | 45.65145 | -118.54584 | 32874 ft | 447 kts | 92° |
| 2026-05-05 00:47 | 45.64082 | -118.45789 | 32891 ft | 447 kts | 92° |
| 2026-05-05 00:48 | 45.63016 | -118.37021 | 32911 ft | 447 kts | 92° |
| 2026-05-05 00:48 | 45.61941 | -118.28233 | 32926 ft | 448 kts | 93° |
| 2026-05-05 00:49 | 45.60834 | -118.19258 | 32941 ft | 449 kts | 93° |
| 2026-05-05 00:49 | 45.59723 | -118.10307 | 32945 ft | 449 kts | 93° |
| 2026-05-05 00:50 | 45.58615 | -118.01442 | 32947 ft | 449 kts | 93° |
| 2026-05-05 00:50 | 45.57476 | -117.92381 | 32941 ft | 449 kts | 94° |
| 2026-05-05 00:51 | 45.56336 | -117.83375 | 32949 ft | 450 kts | 93° |
| 2026-05-05 00:51 | 45.55177 | -117.74265 | 32953 ft | 451 kts | 94° |
| 2026-05-05 00:52 | 45.54018 | -117.65253 | 32949 ft | 450 kts | 93° |
| 2026-05-05 00:52 | 45.52845 | -117.56162 | 32945 ft | 451 kts | 94° |
| 2026-05-05 00:53 | 45.51667 | -117.47091 | 32940 ft | 453 kts | 94° |
| 2026-05-05 00:53 | 45.50477 | -117.38005 | 32936 ft | 453 kts | 94° |
| 2026-05-05 00:54 | 45.49292 | -117.28992 | 32936 ft | 454 kts | 94° |
| 2026-05-05 00:54 | 45.48096 | -117.19965 | 32938 ft | 454 kts | 94° |
| 2026-05-05 00:55 | 45.46887 | -117.10877 | 32940 ft | 454 kts | 95° |
| 2026-05-05 00:55 | 45.45653 | -117.01684 | 32942 ft | 454 kts | 95° |
| 2026-05-05 00:56 | 45.44430 | -116.92625 | 32942 ft | 455 kts | 95° |
| 2026-05-05 00:56 | 45.43216 | -116.83696 | 32942 ft | 456 kts | 95° |
| 2026-05-05 00:57 | 45.41947 | -116.74409 | 32943 ft | 456 kts | 95° |
| 2026-05-05 00:57 | 45.40709 | -116.65423 | 32949 ft | 456 kts | 95° |
| 2026-05-05 00:58 | 45.39423 | -116.56130 | 32954 ft | 457 kts | 95° |
| 2026-05-05 00:58 | 45.38151 | -116.46998 | 32964 ft | 457 kts | 95° |
| 2026-05-05 00:59 | 45.36877 | -116.37915 | 32963 ft | 457 kts | 95° |
| 2026-05-05 00:59 | 45.35583 | -116.28731 | 32967 ft | 458 kts | 96° |
| 2026-05-05 01:00 | 45.34299 | -116.19672 | 32969 ft | 460 kts | 95° |
| 2026-05-05 01:00 | 45.32995 | -116.10529 | 32979 ft | 460 kts | 96° |
| 2026-05-05 01:01 | 45.31679 | -116.01367 | 32985 ft | 461 kts | 96° |
| 2026-05-05 01:01 | 45.30357 | -115.92232 | 32987 ft | 460 kts | 96° |
| 2026-05-05 01:02 | 45.29024 | -115.83063 | 32981 ft | 461 kts | 96° |
| 2026-05-05 01:02 | 45.27681 | -115.73877 | 32982 ft | 461 kts | 96° |
| 2026-05-05 01:03 | 45.26333 | -115.64712 | 32976 ft | 462 kts | 96° |
| 2026-05-05 01:03 | 45.24943 | -115.55321 | 32966 ft | 464 kts | 96° |
| 2026-05-05 01:04 | 45.23563 | -115.46054 | 32950 ft | 463 kts | 96° |
| 2026-05-05 01:04 | 45.21472 | -115.32116 | 32994 ft | 464 kts | 97° |
| 2026-05-05 01:05 | 45.20053 | -115.22722 | 33028 ft | 466 kts | 97° |
| 2026-05-05 01:05 | 45.18623 | -115.13304 | 33038 ft | 465 kts | 97° |
| 2026-05-05 01:06 | 45.17196 | -115.03962 | 33033 ft | 466 kts | 97° |
| 2026-05-05 01:06 | 45.15786 | -114.94804 | 33024 ft | 467 kts | 97° |
| 2026-05-05 01:07 | 45.14376 | -114.85680 | 33018 ft | 467 kts | 97° |
| 2026-05-05 01:07 | 45.12925 | -114.76350 | 33017 ft | 467 kts | 97° |
| 2026-05-05 01:08 | 45.11470 | -114.67052 | 33019 ft | 468 kts | 97° |
| 2026-05-05 01:08 | 45.10031 | -114.57907 | 33012 ft | 468 kts | 97° |
| 2026-05-05 01:09 | 45.08599 | -114.48850 | 33009 ft | 469 kts | 97° |
| 2026-05-05 01:09 | 45.07155 | -114.39769 | 33005 ft | 469 kts | 97° |
| 2026-05-05 01:10 | 45.05700 | -114.30653 | 33005 ft | 470 kts | 98° |
| 2026-05-05 01:10 | 45.04190 | -114.21263 | 33005 ft | 470 kts | 98° |
| 2026-05-05 01:11 | 45.02684 | -114.11962 | 33005 ft | 471 kts | 98° |
| 2026-05-05 01:11 | 45.01136 | -114.02750 | 33011 ft | 471 kts | 99° |
| 2026-05-05 01:12 | 44.99482 | -113.93512 | 33015 ft | 472 kts | 100° |
| 2026-05-05 01:12 | 44.97825 | -113.84299 | 33009 ft | 472 kts | 99° |
| 2026-05-05 01:13 | 44.96170 | -113.75084 | 33014 ft | 473 kts | 100° |
| 2026-05-05 01:13 | 44.94491 | -113.65784 | 33003 ft | 472 kts | 99° |
| 2026-05-05 01:14 | 44.92802 | -113.56450 | 33002 ft | 472 kts | 100° |
| 2026-05-05 01:14 | 44.91065 | -113.46911 | 32994 ft | 473 kts | 100° |
| 2026-05-05 01:15 | 44.89338 | -113.37479 | 32982 ft | 474 kts | 100° |
| 2026-05-05 01:15 | 44.87619 | -113.28127 | 32991 ft | 475 kts | 101° |
| 2026-05-05 01:16 | 44.85826 | -113.18421 | 32990 ft | 474 kts | 101° |
| 2026-05-05 01:16 | 44.84071 | -113.08976 | 32984 ft | 475 kts | 101° |
| 2026-05-05 01:17 | 44.82339 | -112.99696 | 32985 ft | 474 kts | 101° |
| 2026-05-05 01:17 | 44.80643 | -112.90670 | 32989 ft | 476 kts | 101° |
| 2026-05-05 01:18 | 44.78938 | -112.81616 | 32987 ft | 477 kts | 101° |
| 2026-05-05 01:18 | 44.77227 | -112.72584 | 32974 ft | 477 kts | 101° |
| 2026-05-05 01:19 | 44.75494 | -112.63481 | 32980 ft | 478 kts | 101° |
| 2026-05-05 01:19 | 44.73763 | -112.54446 | 32986 ft | 478 kts | 101° |
| 2026-05-05 01:20 | 44.71979 | -112.45158 | 32981 ft | 478 kts | 101° |
| 2026-05-05 01:20 | 44.70240 | -112.36139 | 32986 ft | 479 kts | 101° |
| 2026-05-05 01:21 | 44.68441 | -112.26864 | 32984 ft | 479 kts | 102° |
| 2026-05-05 01:21 | 44.66633 | -112.17594 | 32987 ft | 481 kts | 102° |
| 2026-05-05 01:22 | 44.64786 | -112.08160 | 32981 ft | 481 kts | 102° |
| 2026-05-05 01:22 | 44.62953 | -111.98850 | 32993 ft | 481 kts | 102° |
| 2026-05-05 01:23 | 44.61146 | -111.89710 | 32980 ft | 481 kts | 102° |
| 2026-05-05 01:23 | 44.59295 | -111.80389 | 32976 ft | 481 kts | 102° |
| 2026-05-05 01:24 | 44.57426 | -111.71030 | 32980 ft | 482 kts | 102° |
| 2026-05-05 01:24 | 44.55545 | -111.61651 | 32984 ft | 483 kts | 102° |
| 2026-05-05 01:25 | 44.53692 | -111.52450 | 32989 ft | 482 kts | 102° |
| 2026-05-05 01:25 | 44.51808 | -111.43144 | 32994 ft | 483 kts | 102° |
| 2026-05-05 01:26 | 44.49940 | -111.33959 | 33000 ft | 483 kts | 103° |
| 2026-05-05 01:26 | 44.48070 | -111.24809 | 32998 ft | 484 kts | 103° |
| 2026-05-05 01:27 | 44.46199 | -111.15686 | 32992 ft | 483 kts | 103° |
| 2026-05-05 01:27 | 44.44316 | -111.06557 | 32994 ft | 483 kts | 103° |
| 2026-05-05 01:28 | 44.42418 | -110.97394 | 33009 ft | 484 kts | 103° |
| 2026-05-05 01:28 | 44.40513 | -110.88228 | 33018 ft | 485 kts | 103° |
| 2026-05-05 01:29 | 44.38551 | -110.78842 | 33032 ft | 485 kts | 103° |
| 2026-05-05 01:29 | 44.36570 | -110.69406 | 33037 ft | 486 kts | 103° |
| 2026-05-05 01:30 | 44.34581 | -110.59975 | 33043 ft | 485 kts | 103° |
| 2026-05-05 01:30 | 44.32602 | -110.50641 | 33050 ft | 485 kts | 103° |
| 2026-05-05 01:31 | 44.30637 | -110.41406 | 33053 ft | 485 kts | 103° |
| 2026-05-05 01:31 | 44.28666 | -110.32182 | 33059 ft | 486 kts | 104° |
| 2026-05-05 01:32 | 44.26673 | -110.22898 | 33059 ft | 485 kts | 104° |
| 2026-05-05 01:32 | 44.24659 | -110.13560 | 33064 ft | 487 kts | 104° |
| 2026-05-05 01:33 | 44.22616 | -110.04137 | 33062 ft | 488 kts | 104° |
| 2026-05-05 01:33 | 44.20581 | -109.94778 | 33057 ft | 488 kts | 104° |
| 2026-05-05 01:34 | 44.18529 | -109.85391 | 33047 ft | 487 kts | 104° |
| 2026-05-05 01:34 | 44.16499 | -109.76144 | 33029 ft | 487 kts | 104° |
| 2026-05-05 01:35 | 44.14446 | -109.66836 | 33022 ft | 487 kts | 104° |
| 2026-05-05 01:35 | 44.12394 | -109.57571 | 33024 ft | 488 kts | 104° |
| 2026-05-05 01:36 | 44.10364 | -109.48441 | 33015 ft | 488 kts | 104° |
| 2026-05-05 01:36 | 44.08304 | -109.39212 | 33007 ft | 487 kts | 104° |
| 2026-05-05 01:37 | 44.06254 | -109.30077 | 32997 ft | 488 kts | 105° |
| 2026-05-05 01:37 | 44.04187 | -109.20911 | 32991 ft | 487 kts | 105° |
| 2026-05-05 01:38 | 44.02105 | -109.11710 | 32991 ft | 488 kts | 105° |
| 2026-05-05 01:38 | 43.99981 | -109.02351 | 32981 ft | 488 kts | 105° |
| 2026-05-05 01:39 | 43.97875 | -108.93123 | 32982 ft | 487 kts | 105° |
| 2026-05-05 01:39 | 43.95642 | -108.83382 | 32982 ft | 489 kts | 105° |
| 2026-05-05 01:40 | 43.93425 | -108.73756 | 32986 ft | 490 kts | 105° |
| 2026-05-05 01:40 | 43.91283 | -108.64485 | 32986 ft | 491 kts | 105° |
| 2026-05-05 01:41 | 43.89176 | -108.55403 | 32978 ft | 491 kts | 105° |
| 2026-05-05 01:41 | 43.87018 | -108.46143 | 32976 ft | 492 kts | 105° |
| 2026-05-05 01:42 | 43.84873 | -108.36985 | 32970 ft | 492 kts | 105° |
| 2026-05-05 01:42 | 43.82722 | -108.27824 | 32958 ft | 493 kts | 107° |
| 2026-05-05 01:43 | 43.80550 | -108.18626 | 32949 ft | 495 kts | 107° |
| 2026-05-05 01:43 | 43.78367 | -108.09422 | 32940 ft | 494 kts | 107° |
| 2026-05-05 01:44 | 43.76193 | -108.00284 | 32936 ft | 496 kts | 107° |
| 2026-05-05 01:44 | 43.73985 | -107.91033 | 32932 ft | 496 kts | 107° |
| 2026-05-05 01:45 | 43.71775 | -107.81833 | 32939 ft | 496 kts | 107° |
| 2026-05-05 01:45 | 43.69541 | -107.72566 | 32943 ft | 497 kts | 107° |
| 2026-05-05 01:46 | 43.67323 | -107.63395 | 32949 ft | 496 kts | 107° |
| 2026-05-05 01:46 | 43.65084 | -107.54165 | 32957 ft | 496 kts | 107° |
| 2026-05-05 01:47 | 43.62838 | -107.44961 | 32964 ft | 496 kts | 107° |
| 2026-05-05 01:47 | 43.60570 | -107.35703 | 32960 ft | 496 kts | 107° |
| 2026-05-05 01:48 | 43.58313 | -107.26522 | 32960 ft | 496 kts | 108° |
| 2026-05-05 01:48 | 43.55971 | -107.17047 | 32964 ft | 497 kts | 108° |
| 2026-05-05 01:49 | 43.53665 | -107.07743 | 32967 ft | 498 kts | 109° |
| 2026-05-05 01:49 | 43.51341 | -106.98395 | 32967 ft | 499 kts | 109° |
| 2026-05-05 01:50 | 43.49034 | -106.89172 | 32968 ft | 499 kts | 109° |
| 2026-05-05 01:50 | 43.46706 | -106.79895 | 32970 ft | 499 kts | 109° |
| 2026-05-05 01:51 | 43.44366 | -106.70599 | 32980 ft | 498 kts | 109° |
| 2026-05-05 01:51 | 43.42034 | -106.61368 | 32970 ft | 499 kts | 109° |
| 2026-05-05 01:52 | 43.39727 | -106.52277 | 32971 ft | 498 kts | 109° |
| 2026-05-05 01:52 | 43.37396 | -106.43129 | 32969 ft | 498 kts | 109° |
| 2026-05-05 01:53 | 43.35070 | -106.34036 | 32961 ft | 499 kts | 110° |
| 2026-05-05 01:53 | 43.32697 | -106.24802 | 32958 ft | 499 kts | 110° |
| 2026-05-05 01:54 | 43.30347 | -106.15688 | 32956 ft | 500 kts | 110° |
| 2026-05-05 01:54 | 43.28012 | -106.06654 | 32947 ft | 499 kts | 110° |
| 2026-05-05 01:55 | 43.25652 | -105.97581 | 32940 ft | 500 kts | 110° |
| 2026-05-05 01:55 | 43.23295 | -105.88547 | 32941 ft | 500 kts | 110° |
| 2026-05-05 01:56 | 43.20921 | -105.79468 | 32945 ft | 500 kts | 110° |
| 2026-05-05 01:56 | 43.18453 | -105.70084 | 32948 ft | 501 kts | 110° |
| 2026-05-05 01:57 | 43.15950 | -105.60599 | 32951 ft | 502 kts | 110° |
| 2026-05-05 01:57 | 43.13490 | -105.51308 | 32953 ft | 502 kts | 110° |
| 2026-05-05 01:58 | 43.11051 | -105.42134 | 32950 ft | 502 kts | 110° |
| 2026-05-05 01:58 | 43.08633 | -105.33076 | 32951 ft | 503 kts | 111° |
| 2026-05-05 01:59 | 43.06133 | -105.23738 | 32957 ft | 504 kts | 111° |
| 2026-05-05 01:59 | 43.03701 | -105.14711 | 32956 ft | 504 kts | 111° |
| 2026-05-05 02:00 | 43.01246 | -105.05609 | 32954 ft | 504 kts | 111° |
| 2026-05-05 02:00 | 42.98809 | -104.96625 | 32953 ft | 505 kts | 110° |
| 2026-05-05 02:01 | 42.96373 | -104.87663 | 32943 ft | 505 kts | 111° |
| 2026-05-05 02:01 | 42.93904 | -104.78621 | 32952 ft | 506 kts | 111° |
| 2026-05-05 02:02 | 42.91439 | -104.69616 | 32943 ft | 507 kts | 111° |
| 2026-05-05 02:02 | 42.88941 | -104.60528 | 32949 ft | 507 kts | 111° |
| 2026-05-05 02:03 | 42.86403 | -104.51317 | 32929 ft | 508 kts | 111° |
| 2026-05-05 02:03 | 42.83825 | -104.42008 | 32924 ft | 509 kts | 111° |
| 2026-05-05 02:04 | 42.81222 | -104.32655 | 32932 ft | 509 kts | 112° |
| 2026-05-05 02:04 | 42.78643 | -104.23412 | 32919 ft | 510 kts | 112° |
| 2026-05-05 02:05 | 42.76028 | -104.14074 | 32920 ft | 511 kts | 112° |
| 2026-05-05 02:05 | 42.73416 | -104.04789 | 32914 ft | 512 kts | 112° |
| 2026-05-05 02:06 | 42.70815 | -103.95573 | 32922 ft | 513 kts | 112° |
| 2026-05-05 02:06 | 42.68180 | -103.86270 | 32928 ft | 514 kts | 112° |
| 2026-05-05 02:07 | 42.65537 | -103.76977 | 32930 ft | 513 kts | 112° |
| 2026-05-05 02:07 | 42.62903 | -103.67744 | 32930 ft | 514 kts | 112° |
| 2026-05-05 02:08 | 42.60229 | -103.58406 | 32925 ft | 514 kts | 113° |
| 2026-05-05 02:08 | 42.57558 | -103.49116 | 32928 ft | 514 kts | 112° |
| 2026-05-05 02:09 | 42.54868 | -103.39796 | 32921 ft | 515 kts | 112° |
| 2026-05-05 02:09 | 42.52186 | -103.30532 | 32923 ft | 515 kts | 114° |
| 2026-05-05 02:10 | 42.49447 | -103.21108 | 32918 ft | 514 kts | 114° |
| 2026-05-05 02:10 | 42.46755 | -103.11887 | 32913 ft | 514 kts | 114° |
| 2026-05-05 02:11 | 42.44024 | -103.02559 | 32919 ft | 515 kts | 114° |
| 2026-05-05 02:11 | 42.41339 | -102.93417 | 32913 ft | 515 kts | 114° |
| 2026-05-05 02:12 | 42.37256 | -102.79576 | 32915 ft | 516 kts | 114° |
| 2026-05-05 02:13 | 42.34544 | -102.70423 | 32915 ft | 515 kts | 114° |
| 2026-05-05 02:13 | 42.31802 | -102.61222 | 32908 ft | 515 kts | 114° |
| 2026-05-05 02:14 | 42.29006 | -102.51858 | 32906 ft | 516 kts | 114° |
| 2026-05-05 02:14 | 42.26174 | -102.42395 | 32904 ft | 515 kts | 114° |
| 2026-05-05 02:15 | 42.23329 | -102.32946 | 32902 ft | 516 kts | 114° |
| 2026-05-05 02:15 | 42.20562 | -102.23761 | 32906 ft | 516 kts | 115° |
| 2026-05-05 02:16 | 42.17724 | -102.14397 | 32912 ft | 516 kts | 115° |
| 2026-05-05 02:16 | 42.14889 | -102.05067 | 32915 ft | 516 kts | 115° |
| 2026-05-05 02:17 | 42.11968 | -101.95487 | 32911 ft | 516 kts | 115° |
| 2026-05-05 02:17 | 42.09090 | -101.86092 | 32911 ft | 516 kts | 115° |
| 2026-05-05 02:18 | 42.06229 | -101.76787 | 32911 ft | 516 kts | 115° |
| 2026-05-05 02:18 | 42.03384 | -101.67558 | 32911 ft | 515 kts | 115° |
| 2026-05-05 02:19 | 42.00547 | -101.58385 | 32904 ft | 515 kts | 115° |
| 2026-05-05 02:19 | 41.97706 | -101.49242 | 32905 ft | 516 kts | 115° |
| 2026-05-05 02:20 | 41.94850 | -101.40082 | 32907 ft | 516 kts | 115° |
| 2026-05-05 02:20 | 41.92006 | -101.30979 | 32870 ft | 515 kts | 116° |
| 2026-05-05 02:21 | 41.89148 | -101.21865 | 32872 ft | 514 kts | 116° |
| 2026-05-05 02:21 | 41.86280 | -101.12757 | 32882 ft | 515 kts | 116° |
| 2026-05-05 02:22 | 41.83352 | -101.03480 | 32906 ft | 516 kts | 116° |
| 2026-05-05 02:22 | 41.80467 | -100.94384 | 32886 ft | 516 kts | 116° |
| 2026-05-05 02:23 | 41.77648 | -100.85525 | 32893 ft | 518 kts | 116° |
| 2026-05-05 02:23 | 41.74834 | -100.76709 | 32902 ft | 517 kts | 116° |
| 2026-05-05 02:24 | 41.71981 | -100.67790 | 32889 ft | 517 kts | 116° |
| 2026-05-05 02:24 | 41.69048 | -100.58656 | 32900 ft | 517 kts | 116° |
| 2026-05-05 02:25 | 41.66129 | -100.49598 | 32890 ft | 517 kts | 116° |
| 2026-05-05 02:25 | 41.63206 | -100.40555 | 32887 ft | 517 kts | 116° |
| 2026-05-05 02:26 | 41.60229 | -100.31368 | 32870 ft | 516 kts | 117° |
| 2026-05-05 02:26 | 41.57277 | -100.22299 | 32864 ft | 516 kts | 117° |
| 2026-05-05 02:27 | 41.54325 | -100.13251 | 32868 ft | 516 kts | 116° |
| 2026-05-05 02:27 | 41.51364 | -100.04215 | 32866 ft | 516 kts | 117° |
| 2026-05-05 02:28 | 41.48391 | -99.95104 | 32876 ft | 517 kts | 116° |
| 2026-05-05 02:28 | 41.45437 | -99.85887 | 32867 ft | 519 kts | 115° |
| 2026-05-05 02:29 | 41.42473 | -99.76658 | 32872 ft | 518 kts | 116° |
| 2026-05-05 02:29 | 41.39556 | -99.67618 | 32868 ft | 518 kts | 115° |
| 2026-05-05 02:30 | 41.36602 | -99.58511 | 32876 ft | 518 kts | 116° |
| 2026-05-05 02:30 | 41.33695 | -99.49569 | 32873 ft | 520 kts | 116° |
| 2026-05-05 02:31 | 41.30758 | -99.40565 | 32870 ft | 520 kts | 115° |
| 2026-05-05 02:31 | 41.27841 | -99.31654 | 32862 ft | 521 kts | 116° |
| 2026-05-05 02:32 | 41.24885 | -99.22654 | 32862 ft | 521 kts | 116° |
| 2026-05-05 02:32 | 41.21924 | -99.13663 | 32859 ft | 521 kts | 116° |
| 2026-05-05 02:33 | 41.18966 | -99.04726 | 32860 ft | 523 kts | 116° |
| 2026-05-05 02:33 | 41.16025 | -98.95851 | 32853 ft | 522 kts | 116° |
| 2026-05-05 02:34 | 41.13099 | -98.87055 | 32848 ft | 522 kts | 116° |
| 2026-05-05 02:34 | 41.10159 | -98.78250 | 32849 ft | 523 kts | 116° |
| 2026-05-05 02:35 | 41.07227 | -98.69481 | 32850 ft | 522 kts | 116° |
| 2026-05-05 02:35 | 41.04265 | -98.60663 | 33040 ft | 524 kts | 116° |
| 2026-05-05 02:35 | 41.02776 | -98.56245 | 33346 ft | 522 kts | 116° |
| 2026-05-05 02:36 | 41.01304 | -98.51893 | 33616 ft | 522 kts | 116° |
| 2026-05-05 02:36 | 40.99809 | -98.47462 | 33798 ft | 523 kts | 115° |
| 2026-05-05 02:36 | 40.98298 | -98.42991 | 33996 ft | 524 kts | 116° |
| 2026-05-05 02:36 | 40.96803 | -98.38590 | 34181 ft | 525 kts | 116° |
| 2026-05-05 02:37 | 40.95319 | -98.34206 | 34422 ft | 525 kts | 116° |
| 2026-05-05 02:37 | 40.93808 | -98.29748 | 34605 ft | 525 kts | 116° |
| 2026-05-05 02:37 | 40.92297 | -98.25324 | 34743 ft | 525 kts | 116° |
| 2026-05-05 02:38 | 40.89280 | -98.16475 | 34832 ft | 529 kts | 116° |
| 2026-05-05 02:38 | 40.86227 | -98.07554 | 34851 ft | 529 kts | 116° |
| 2026-05-05 02:39 | 40.83183 | -97.98682 | 34843 ft | 530 kts | 116° |
| 2026-05-05 02:39 | 40.80135 | -97.89829 | 34850 ft | 529 kts | 117° |
| 2026-05-05 02:40 | 40.77090 | -97.81026 | 34849 ft | 530 kts | 117° |
| 2026-05-05 02:40 | 40.73996 | -97.72104 | 34832 ft | 533 kts | 116° |
| 2026-05-05 02:41 | 40.70902 | -97.63193 | 34819 ft | 533 kts | 117° |
| 2026-05-05 02:41 | 40.67790 | -97.54274 | 34818 ft | 535 kts | 116° |
| 2026-05-05 02:42 | 40.64679 | -97.45374 | 34768 ft | 534 kts | 117° |
| 2026-05-05 02:42 | 40.61531 | -97.36407 | 34807 ft | 535 kts | 116° |
| 2026-05-05 02:43 | 40.58356 | -97.27392 | 34826 ft | 536 kts | 117° |
| 2026-05-05 02:43 | 40.55209 | -97.18469 | 34818 ft | 534 kts | 117° |
| 2026-05-05 02:44 | 40.52062 | -97.09602 | 34818 ft | 534 kts | 117° |
| 2026-05-05 02:44 | 40.48885 | -97.00666 | 34807 ft | 535 kts | 117° |
| 2026-05-05 02:45 | 40.45704 | -96.91750 | 34809 ft | 536 kts | 117° |
| 2026-05-05 02:45 | 40.42542 | -96.82903 | 34813 ft | 536 kts | 117° |
| 2026-05-05 02:46 | 40.39377 | -96.74076 | 34801 ft | 536 kts | 117° |
| 2026-05-05 02:46 | 40.36185 | -96.65203 | 34759 ft | 537 kts | 117° |
| 2026-05-05 02:47 | 40.32975 | -96.56313 | 34792 ft | 537 kts | 117° |
| 2026-05-05 02:47 | 40.29774 | -96.47486 | 34771 ft | 539 kts | 116° |
| 2026-05-05 02:48 | 40.26568 | -96.38638 | 34767 ft | 537 kts | 117° |
| 2026-05-05 02:48 | 40.23322 | -96.29707 | 34801 ft | 538 kts | 117° |
| 2026-05-05 02:49 | 40.20072 | -96.20814 | 34786 ft | 539 kts | 117° |
| 2026-05-05 02:49 | 40.16821 | -96.12012 | 34783 ft | 539 kts | 118° |
| 2026-05-05 02:50 | 40.13544 | -96.03187 | 34796 ft | 539 kts | 118° |
| 2026-05-05 02:50 | 40.10262 | -95.94373 | 34787 ft | 538 kts | 117° |
| 2026-05-05 02:51 | 40.06997 | -95.85611 | 34778 ft | 538 kts | 117° |
| 2026-05-05 02:51 | 40.03689 | -95.76757 | 34787 ft | 539 kts | 117° |
| 2026-05-05 02:52 | 40.00411 | -95.68023 | 34791 ft | 537 kts | 117° |
| 2026-05-05 02:52 | 39.97123 | -95.59271 | 34775 ft | 537 kts | 117° |
| 2026-05-05 02:53 | 39.93822 | -95.50517 | 34786 ft | 536 kts | 118° |
| 2026-05-05 02:53 | 39.90515 | -95.41782 | 34773 ft | 535 kts | 117° |
| 2026-05-05 02:54 | 39.87176 | -95.32990 | 34768 ft | 536 kts | 118° |
| 2026-05-05 02:54 | 39.83827 | -95.24179 | 34766 ft | 535 kts | 118° |
| 2026-05-05 02:55 | 39.80517 | -95.15523 | 34768 ft | 533 kts | 117° |
| 2026-05-05 02:55 | 39.77194 | -95.06844 | 34747 ft | 533 kts | 117° |
| 2026-05-05 02:56 | 39.73871 | -94.98184 | 34762 ft | 532 kts | 118° |
| 2026-05-05 02:56 | 39.70569 | -94.89600 | 34750 ft | 531 kts | 118° |
| 2026-05-05 02:57 | 39.67244 | -94.80994 | 34645 ft | 532 kts | 117° |
| 2026-05-05 02:57 | 39.63899 | -94.72364 | 34716 ft | 532 kts | 117° |
| 2026-05-05 02:58 | 39.60577 | -94.63805 | 34733 ft | 532 kts | 118° |
| 2026-05-05 02:58 | 39.57224 | -94.55183 | 34737 ft | 531 kts | 118° |
| 2026-05-05 02:59 | 39.53893 | -94.46661 | 34749 ft | 531 kts | 118° |
| 2026-05-05 02:59 | 39.50521 | -94.38052 | 34762 ft | 532 kts | 117° |
| 2026-05-05 03:00 | 39.47111 | -94.29369 | 34751 ft | 531 kts | 118° |
| 2026-05-05 03:00 | 39.43763 | -94.20875 | 34739 ft | 531 kts | 118° |
| 2026-05-05 03:01 | 39.40387 | -94.12321 | 34737 ft | 528 kts | 118° |
| 2026-05-05 03:01 | 39.37032 | -94.03854 | 34745 ft | 528 kts | 117° |
| 2026-05-05 03:02 | 39.33664 | -93.95377 | 34743 ft | 529 kts | 117° |
| 2026-05-05 03:02 | 39.30268 | -93.86856 | 34726 ft | 529 kts | 118° |
| 2026-05-05 03:03 | 39.26903 | -93.78427 | 34735 ft | 528 kts | 117° |
| 2026-05-05 03:03 | 39.23519 | -93.69968 | 34740 ft | 530 kts | 118° |
| 2026-05-05 03:04 | 39.20112 | -93.61482 | 34736 ft | 529 kts | 117° |
| 2026-05-05 03:04 | 39.16664 | -93.53088 | 34744 ft | 530 kts | 118° |
| 2026-05-05 03:05 | 39.13074 | -93.44781 | 34800 ft | 528 kts | 120° |
| 2026-05-05 03:05 | 39.09470 | -93.36496 | 34747 ft | 529 kts | 119° |
| 2026-05-05 03:06 | 39.05857 | -93.28178 | 34751 ft | 529 kts | 120° |
| 2026-05-05 03:06 | 39.02276 | -93.19933 | 34742 ft | 529 kts | 120° |
| 2026-05-05 03:07 | 38.98687 | -93.11663 | 34734 ft | 530 kts | 119° |
| 2026-05-05 03:07 | 38.95085 | -93.03407 | 34726 ft | 531 kts | 119° |
| 2026-05-05 03:08 | 38.91474 | -92.95142 | 34719 ft | 532 kts | 119° |
| 2026-05-05 03:08 | 38.87815 | -92.86781 | 34699 ft | 533 kts | 120° |
| 2026-05-05 03:09 | 38.84148 | -92.78429 | 34724 ft | 534 kts | 120° |
| 2026-05-05 03:09 | 38.80522 | -92.70216 | 34705 ft | 533 kts | 120° |
| 2026-05-05 03:10 | 38.76856 | -92.61908 | 34714 ft | 534 kts | 120° |
| 2026-05-05 03:10 | 38.73183 | -92.53621 | 34721 ft | 535 kts | 120° |
| 2026-05-05 03:11 | 38.69523 | -92.45375 | 34731 ft | 533 kts | 120° |
| 2026-05-05 03:11 | 38.65844 | -92.37128 | 34741 ft | 534 kts | 120° |
| 2026-05-05 03:12 | 38.62131 | -92.28799 | 34733 ft | 533 kts | 121° |
| 2026-05-05 03:12 | 38.58445 | -92.20565 | 34734 ft | 536 kts | 120° |
| 2026-05-05 03:13 | 38.54730 | -92.12295 | 34735 ft | 537 kts | 120° |
| 2026-05-05 03:13 | 38.51020 | -92.04028 | 34732 ft | 535 kts | 120° |
| 2026-05-05 03:14 | 38.47299 | -91.95787 | 34746 ft | 535 kts | 120° |
| 2026-05-05 03:14 | 38.43576 | -91.87563 | 34744 ft | 535 kts | 121° |
| 2026-05-05 03:15 | 38.39833 | -91.79298 | 34769 ft | 536 kts | 120° |
| 2026-05-05 03:15 | 38.36097 | -91.71087 | 34766 ft | 533 kts | 121° |
| 2026-05-05 03:16 | 38.32433 | -91.63056 | 34760 ft | 534 kts | 120° |
| 2026-05-05 03:16 | 38.29135 | -91.55814 | 34785 ft | 536 kts | 121° |
| 2026-05-05 03:17 | 38.25380 | -91.47619 | 34780 ft | 533 kts | 120° |
| 2026-05-05 03:17 | 38.21640 | -91.39490 | 34767 ft | 532 kts | 120° |
| 2026-05-05 03:18 | 38.17860 | -91.31265 | 34775 ft | 531 kts | 122° |
| 2026-05-05 03:18 | 38.14128 | -91.23175 | 34777 ft | 530 kts | 121° |
| 2026-05-05 03:19 | 38.08501 | -91.11021 | 34796 ft | 528 kts | 121° |
| 2026-05-05 03:19 | 38.04765 | -91.02966 | 34782 ft | 526 kts | 121° |
| 2026-05-05 03:20 | 38.01059 | -90.95012 | 34777 ft | 524 kts | 121° |
| 2026-05-05 03:20 | 37.97340 | -90.87040 | 34794 ft | 523 kts | 121° |
| 2026-05-05 03:21 | 37.93638 | -90.79113 | 34784 ft | 527 kts | 121° |
| 2026-05-05 03:21 | 37.89862 | -90.71055 | 34797 ft | 524 kts | 121° |
| 2026-05-05 03:22 | 37.86061 | -90.62982 | 34779 ft | 524 kts | 121° |
| 2026-05-05 03:22 | 37.82325 | -90.55054 | 34803 ft | 526 kts | 120° |
| 2026-05-05 03:23 | 37.78580 | -90.47108 | 34806 ft | 524 kts | 121° |
| 2026-05-05 03:23 | 37.74806 | -90.39145 | 34813 ft | 528 kts | 121° |
| 2026-05-05 03:24 | 37.71023 | -90.31159 | 34817 ft | 527 kts | 122° |
| 2026-05-05 03:24 | 37.67257 | -90.23180 | 34815 ft | 527 kts | 120° |
| 2026-05-05 03:25 | 37.63823 | -90.14966 | 34801 ft | 527 kts | 117° |
| 2026-05-05 03:25 | 37.60471 | -90.06762 | 34840 ft | 528 kts | 117° |
| 2026-05-05 03:26 | 37.57104 | -89.98570 | 34809 ft | 526 kts | 117° |
| 2026-05-05 03:26 | 37.53728 | -89.90382 | 34801 ft | 528 kts | 118° |
| 2026-05-05 03:27 | 37.50316 | -89.82174 | 34816 ft | 530 kts | 117° |
| 2026-05-05 03:27 | 37.46907 | -89.73953 | 34807 ft | 527 kts | 117° |
| 2026-05-05 03:28 | 37.43492 | -89.65743 | 34816 ft | 529 kts | 117° |
| 2026-05-05 03:28 | 37.40070 | -89.57543 | 34800 ft | 530 kts | 117° |
| 2026-05-05 03:29 | 37.36641 | -89.49359 | 34818 ft | 528 kts | 117° |
| 2026-05-05 03:29 | 37.33229 | -89.41237 | 34822 ft | 528 kts | 117° |
| 2026-05-05 03:30 | 37.29773 | -89.33013 | 34819 ft | 528 kts | 117° |
| 2026-05-05 03:30 | 37.26294 | -89.24770 | 34842 ft | 528 kts | 118° |
| 2026-05-05 03:31 | 37.22876 | -89.16682 | 34829 ft | 526 kts | 117° |
| 2026-05-05 03:31 | 37.19443 | -89.08601 | 34854 ft | 525 kts | 117° |
| 2026-05-05 03:32 | 37.16022 | -89.00537 | 34813 ft | 523 kts | 118° |
| 2026-05-05 03:32 | 37.12589 | -88.92481 | 34835 ft | 523 kts | 117° |
| 2026-05-05 03:33 | 37.09174 | -88.84486 | 34856 ft | 522 kts | 117° |
| 2026-05-05 03:33 | 37.05707 | -88.76396 | 34855 ft | 523 kts | 117° |
| 2026-05-05 03:34 | 37.02270 | -88.68380 | 34873 ft | 522 kts | 117° |
| 2026-05-05 03:34 | 36.98804 | -88.60322 | 34875 ft | 521 kts | 118° |
| 2026-05-05 03:35 | 36.95375 | -88.52378 | 34872 ft | 520 kts | 118° |
| 2026-05-05 03:35 | 36.91938 | -88.44435 | 34879 ft | 521 kts | 117° |
| 2026-05-05 03:36 | 36.88455 | -88.36401 | 34868 ft | 520 kts | 118° |
| 2026-05-05 03:36 | 36.84940 | -88.28319 | 34878 ft | 520 kts | 118° |
| 2026-05-05 03:37 | 36.81496 | -88.20408 | 34897 ft | 519 kts | 118° |
| 2026-05-05 03:37 | 36.78054 | -88.12524 | 34899 ft | 519 kts | 118° |
| 2026-05-05 03:38 | 36.74598 | -88.04623 | 34872 ft | 516 kts | 118° |
| 2026-05-05 03:38 | 36.71151 | -87.96776 | 34891 ft | 518 kts | 118° |
| 2026-05-05 03:39 | 36.67691 | -87.88914 | 34886 ft | 517 kts | 118° |
| 2026-05-05 03:39 | 36.64238 | -87.81074 | 34895 ft | 518 kts | 118° |
| 2026-05-05 03:40 | 36.60762 | -87.73211 | 34883 ft | 519 kts | 118° |
| 2026-05-05 03:40 | 36.57281 | -87.65357 | 34886 ft | 518 kts | 118° |
| 2026-05-05 03:41 | 36.55056 | -87.60345 | 34917 ft | 517 kts | 119° |
| 2026-05-05 03:41 | 36.51559 | -87.52473 | 34907 ft | 517 kts | 119° |
| 2026-05-05 03:42 | 36.48092 | -87.44698 | 34908 ft | 518 kts | 119° |
| 2026-05-05 03:42 | 36.44591 | -87.36871 | 34899 ft | 518 kts | 118° |
| 2026-05-05 03:43 | 36.41066 | -87.28998 | 34924 ft | 516 kts | 119° |
| 2026-05-05 03:43 | 36.37580 | -87.21231 | 34918 ft | 514 kts | 120° |
| 2026-05-05 03:44 | 36.34077 | -87.13449 | 34904 ft | 515 kts | 119° |
| 2026-05-05 03:44 | 36.30574 | -87.05692 | 34917 ft | 516 kts | 119° |
| 2026-05-05 03:45 | 36.27070 | -86.97930 | 34931 ft | 516 kts | 120° |
| 2026-05-05 03:45 | 36.23555 | -86.90167 | 34937 ft | 515 kts | 119° |
| 2026-05-05 03:46 | 36.20048 | -86.82449 | 34926 ft | 514 kts | 119° |
| 2026-05-05 03:46 | 36.16358 | -86.74898 | 34933 ft | 513 kts | 127° |
| 2026-05-05 03:47 | 36.11617 | -86.68230 | 34939 ft | 511 kts | 140° |
| 2026-05-05 03:47 | 36.06003 | -86.62962 | 34928 ft | 505 kts | 152° |
| 2026-05-05 03:48 | 35.99871 | -86.58652 | 34951 ft | 504 kts | 154° |
| 2026-05-05 03:48 | 35.93711 | -86.54408 | 34945 ft | 505 kts | 155° |
| 2026-05-05 03:49 | 35.87537 | -86.50089 | 34951 ft | 504 kts | 154° |
| 2026-05-05 03:49 | 35.81419 | -86.45799 | 34949 ft | 508 kts | 154° |
| 2026-05-05 03:50 | 35.75241 | -86.41469 | 34957 ft | 507 kts | 154° |
| 2026-05-05 03:50 | 35.69127 | -86.37157 | 34954 ft | 509 kts | 153° |
| 2026-05-05 03:51 | 35.62936 | -86.32751 | 34963 ft | 509 kts | 154° |
| 2026-05-05 03:51 | 35.56773 | -86.28381 | 34970 ft | 510 kts | 154° |
| 2026-05-05 03:52 | 35.50601 | -86.24020 | 34969 ft | 510 kts | 154° |
| 2026-05-05 03:52 | 35.44473 | -86.19625 | 34957 ft | 512 kts | 151° |
| 2026-05-05 03:53 | 35.38615 | -86.14493 | 34979 ft | 516 kts | 144° |
| 2026-05-05 03:53 | 35.33012 | -86.08994 | 34995 ft | 516 kts | 143° |
| 2026-05-05 03:54 | 35.27387 | -86.03501 | 34980 ft | 515 kts | 144° |
| 2026-05-05 03:54 | 35.22773 | -85.99071 | 34997 ft | 517 kts | 144° |
| 2026-05-05 03:55 | 35.18675 | -85.95154 | 35009 ft | 516 kts | 144° |
| 2026-05-05 03:55 | 35.13763 | -85.90472 | 34994 ft | 518 kts | 144° |
| 2026-05-05 03:56 | 35.10911 | -85.87750 | 34599 ft | 522 kts | 144° |
| 2026-05-05 03:56 | 35.08089 | -85.85053 | 34035 ft | 520 kts | 144° |
| 2026-05-05 03:56 | 35.05240 | -85.82334 | 33369 ft | 519 kts | 144° |
| 2026-05-05 03:56 | 35.02381 | -85.79611 | 32713 ft | 518 kts | 144° |
| 2026-05-05 03:57 | 34.99540 | -85.76907 | 31920 ft | 519 kts | 144° |
| 2026-05-05 03:57 | 34.96689 | -85.74199 | 31145 ft | 518 kts | 144° |
| 2026-05-05 03:57 | 34.93839 | -85.71485 | 30425 ft | 514 kts | 143° |
| 2026-05-05 03:57 | 34.91056 | -85.68842 | 29699 ft | 504 kts | 143° |
| 2026-05-05 03:58 | 34.88289 | -85.66215 | 29003 ft | 493 kts | 143° |
| 2026-05-05 03:58 | 34.85572 | -85.63641 | 28263 ft | 491 kts | 144° |
| 2026-05-05 03:58 | 34.82881 | -85.61093 | 27499 ft | 490 kts | 144° |
| 2026-05-05 03:58 | 34.80198 | -85.58558 | 26936 ft | 484 kts | 144° |
| 2026-05-05 03:59 | 34.78360 | -85.56820 | 26600 ft | 479 kts | 144° |
| 2026-05-05 03:59 | 34.75731 | -85.54336 | 26103 ft | 473 kts | 143° |
| 2026-05-05 03:59 | 34.73157 | -85.51905 | 25615 ft | 467 kts | 144° |
| 2026-05-05 03:59 | 34.70568 | -85.49464 | 25110 ft | 462 kts | 144° |
| 2026-05-05 04:00 | 34.68037 | -85.47076 | 24600 ft | 458 kts | 144° |
| 2026-05-05 04:00 | 34.65517 | -85.44698 | 24106 ft | 453 kts | 144° |
| 2026-05-05 04:00 | 34.63029 | -85.42355 | 23609 ft | 449 kts | 144° |
| 2026-05-05 04:00 | 34.60553 | -85.40024 | 23118 ft | 444 kts | 144° |
| 2026-05-05 04:01 | 34.58130 | -85.37745 | 22624 ft | 440 kts | 144° |
| 2026-05-05 04:01 | 34.55685 | -85.35447 | 22123 ft | 436 kts | 144° |
| 2026-05-05 04:01 | 34.53267 | -85.33175 | 21629 ft | 432 kts | 144° |
| 2026-05-05 04:01 | 34.50902 | -85.30955 | 21129 ft | 428 kts | 144° |
| 2026-05-05 04:02 | 34.48548 | -85.28748 | 20637 ft | 425 kts | 144° |
| 2026-05-05 04:02 | 34.46215 | -85.26560 | 20143 ft | 421 kts | 144° |
| 2026-05-05 04:02 | 34.43932 | -85.24420 | 19665 ft | 418 kts | 144° |
| 2026-05-05 04:02 | 34.41628 | -85.22263 | 19168 ft | 415 kts | 144° |
| 2026-05-05 04:03 | 34.39358 | -85.20141 | 18678 ft | 411 kts | 144° |
| 2026-05-05 04:03 | 34.37083 | -85.18012 | 18175 ft | 408 kts | 144° |
| 2026-05-05 04:03 | 34.34841 | -85.15919 | 17669 ft | 405 kts | 144° |
| 2026-05-05 04:03 | 34.32615 | -85.13844 | 17166 ft | 402 kts | 144° |
| 2026-05-05 04:04 | 34.30416 | -85.11794 | 16663 ft | 398 kts | 144° |
| 2026-05-05 04:04 | 34.28228 | -85.09754 | 16128 ft | 395 kts | 145° |
| 2026-05-05 04:04 | 34.26054 | -85.07730 | 15638 ft | 391 kts | 144° |
| 2026-05-05 04:04 | 34.23907 | -85.05735 | 15163 ft | 388 kts | 144° |
| 2026-05-05 04:05 | 34.21762 | -85.03738 | 14626 ft | 384 kts | 144° |
| 2026-05-05 04:05 | 34.19665 | -85.01788 | 14188 ft | 381 kts | 144° |
| 2026-05-05 04:05 | 34.17550 | -84.99822 | 13661 ft | 378 kts | 144° |
| 2026-05-05 04:05 | 34.15498 | -84.97916 | 13221 ft | 375 kts | 144° |
| 2026-05-05 04:06 | 34.13430 | -84.95989 | 12812 ft | 369 kts | 144° |
| 2026-05-05 04:06 | 34.11414 | -84.94083 | 12822 ft | 367 kts | 144° |
| 2026-05-05 04:06 | 34.09407 | -84.92177 | 12845 ft | 368 kts | 144° |
| 2026-05-05 04:06 | 34.07386 | -84.90259 | 12876 ft | 368 kts | 144° |
| 2026-05-05 04:07 | 34.05382 | -84.88361 | 12903 ft | 368 kts | 144° |
| 2026-05-05 04:07 | 34.03358 | -84.86447 | 12923 ft | 368 kts | 144° |
| 2026-05-05 04:07 | 34.01354 | -84.84554 | 12947 ft | 369 kts | 144° |
| 2026-05-05 04:07 | 33.99325 | -84.82637 | 12971 ft | 369 kts | 144° |
| 2026-05-05 04:08 | 33.97311 | -84.80737 | 12985 ft | 369 kts | 144° |
| 2026-05-05 04:08 | 33.95249 | -84.78791 | 12986 ft | 369 kts | 144° |
| 2026-05-05 04:08 | 33.93228 | -84.76890 | 12987 ft | 368 kts | 144° |
| 2026-05-05 04:08 | 33.91217 | -84.74998 | 12984 ft | 368 kts | 143° |
| 2026-05-05 04:09 | 33.89198 | -84.73097 | 12986 ft | 369 kts | 143° |
| 2026-05-05 04:09 | 33.87100 | -84.71124 | 12987 ft | 368 kts | 144° |
| 2026-05-05 04:09 | 33.85077 | -84.69219 | 12988 ft | 368 kts | 143° |
| 2026-05-05 04:09 | 33.83064 | -84.67328 | 12988 ft | 368 kts | 144° |
| 2026-05-05 04:10 | 33.81025 | -84.65409 | 12984 ft | 368 kts | 144° |
| 2026-05-05 04:10 | 33.79012 | -84.63519 | 12983 ft | 368 kts | 144° |
| 2026-05-05 04:10 | 33.76984 | -84.61618 | 12983 ft | 369 kts | 144° |
| 2026-05-05 04:10 | 33.75011 | -84.59666 | 12976 ft | 371 kts | 137° |
| 2026-05-05 04:11 | 33.73607 | -84.57052 | 12970 ft | 376 kts | 112° |
| 2026-05-05 04:11 | 33.73151 | -84.53973 | 12981 ft | 379 kts | 91° |
| 2026-05-05 04:11 | 33.73187 | -84.50812 | 12983 ft | 380 kts | 89° |
| 2026-05-05 04:11 | 33.73246 | -84.47633 | 12984 ft | 379 kts | 90° |
| 2026-05-05 04:12 | 33.73279 | -84.44463 | 12986 ft | 379 kts | 90° |
| 2026-05-05 04:12 | 33.73293 | -84.41322 | 12981 ft | 380 kts | 90° |
| 2026-05-05 04:12 | 33.73296 | -84.38114 | 12749 ft | 379 kts | 91° |
| 2026-05-05 04:12 | 33.73294 | -84.35001 | 12363 ft | 374 kts | 91° |
| 2026-05-05 04:13 | 33.73294 | -84.31849 | 11969 ft | 372 kts | 91° |
| 2026-05-05 04:13 | 33.73293 | -84.28728 | 11575 ft | 369 kts | 91° |
| 2026-05-05 04:13 | 33.73298 | -84.25682 | 11179 ft | 366 kts | 91° |
| 2026-05-05 04:13 | 33.73301 | -84.22647 | 10800 ft | 360 kts | 91° |
| 2026-05-05 04:14 | 33.73305 | -84.19679 | 10590 ft | 348 kts | 91° |
| 2026-05-05 04:14 | 33.73307 | -84.16849 | 10443 ft | 336 kts | 91° |
| 2026-05-05 04:14 | 33.73310 | -84.14081 | 10259 ft | 324 kts | 92° |
| 2026-05-05 04:14 | 33.73313 | -84.11445 | 10115 ft | 312 kts | 92° |
| 2026-05-05 04:15 | 33.73315 | -84.08885 | 9693 ft | 304 kts | 92° |
| 2026-05-05 04:15 | 33.73317 | -84.06374 | 9264 ft | 298 kts | 92° |
| 2026-05-05 04:15 | 33.73318 | -84.03913 | 8875 ft | 292 kts | 92° |
| 2026-05-05 04:15 | 33.73336 | -84.01476 | 8438 ft | 291 kts | 91° |
| 2026-05-05 04:16 | 33.73330 | -83.99069 | 8017 ft | 285 kts | 97° |
| 2026-05-05 04:16 | 33.72747 | -83.96862 | 7585 ft | 274 kts | 125° |
| 2026-05-05 04:16 | 33.71433 | -83.95289 | 7172 ft | 265 kts | 152° |
| 2026-05-05 04:16 | 33.69705 | -83.94669 | 6754 ft | 258 kts | 180° |
| 2026-05-05 04:17 | 33.68000 | -83.95112 | 6339 ft | 254 kts | 208° |
| 2026-05-05 04:17 | 33.66701 | -83.96493 | 5924 ft | 253 kts | 235° |
| 2026-05-05 04:17 | 33.65881 | -83.98364 | 5511 ft | 252 kts | 245° |
| 2026-05-05 04:17 | 33.65260 | -84.00338 | 5107 ft | 251 kts | 251° |
| 2026-05-05 04:18 | 33.64939 | -84.02342 | 4989 ft | 239 kts | 262° |
| 2026-05-05 04:18 | 33.64899 | -84.04270 | 4977 ft | 225 kts | 269° |
| 2026-05-05 04:18 | 33.64951 | -84.06123 | 4982 ft | 222 kts | 269° |
| 2026-05-05 04:18 | 33.64990 | -84.07970 | 4941 ft | 221 kts | 268° |
| 2026-05-05 04:19 | 33.65009 | -84.09822 | 4907 ft | 220 kts | 267° |
| 2026-05-05 04:19 | 33.65015 | -84.11646 | 4906 ft | 220 kts | 267° |
| 2026-05-05 04:19 | 33.65013 | -84.13506 | 4897 ft | 221 kts | 266° |
| 2026-05-05 04:19 | 33.65007 | -84.15346 | 4775 ft | 220 kts | 266° |
| 2026-05-05 04:20 | 33.65001 | -84.17185 | 4609 ft | 220 kts | 266° |
| 2026-05-05 04:20 | 33.64994 | -84.19015 | 4419 ft | 218 kts | 266° |
| 2026-05-05 04:20 | 33.64988 | -84.20815 | 4225 ft | 218 kts | 266° |
| 2026-05-05 04:20 | 33.64982 | -84.22640 | 3982 ft | 214 kts | 266° |
| 2026-05-05 04:21 | 33.64980 | -84.23791 | 3863 ft | 208 kts | 266° |
| 2026-05-05 04:21 | 33.64975 | -84.26074 | 3455 ft | 201 kts | 266° |
| 2026-05-05 04:21 | 33.64972 | -84.27715 | 3168 ft | 196 kts | 266° |
| 2026-05-05 04:21 | 33.64970 | -84.29327 | 2882 ft | 185 kts | 266° |
| 2026-05-05 04:22 | 33.64968 | -84.30795 | 2658 ft | 168 kts | 266° |
| 2026-05-05 04:22 | 33.64966 | -84.32124 | 2432 ft | 153 kts | 266° |
| 2026-05-05 04:22 | 33.64964 | -84.33363 | 2229 ft | 146 kts | 266° |
| 2026-05-05 04:22 | 33.64961 | -84.34579 | 2058 ft | 146 kts | 268° |
| 2026-05-05 04:23 | 33.64958 | -84.35803 | 1877 ft | 145 kts | 268° |
| 2026-05-05 04:23 | 33.64957 | -84.37003 | 1695 ft | 145 kts | 269° |
| 2026-05-05 04:23 | 33.64956 | -84.38207 | 1505 ft | 145 kts | 269° |
| 2026-05-05 04:23 | 33.64955 | -84.39419 | 1302 ft | 144 kts | 269° |
| 2026-05-05 04:24 | 33.64958 | -84.40612 | 1120 ft | 143 kts | 269° |
| 2026-05-05 04:24 | 33.64954 | -84.41788 | 1012 ft | 130 kts | 269° |
| 2026-05-05 04:24 | 33.64951 | -84.42681 | 1017 ft | 83 kts | 271° |
| 2026-05-05 04:25 | 33.64952 | -84.43481 | 1025 ft | 35 kts | 270° |
| 2026-05-05 04:25 | 33.64951 | -84.43724 | 1030 ft | 19 kts | 269° |
| 2026-05-05 04:25 | 33.64940 | -84.43868 | 1032 ft | 13 kts | 232° |
| 2026-05-05 04:25 | 33.64852 | -84.43877 | 1032 ft | 13 kts | 172° |
| 2026-05-05 04:26 | 33.64789 | -84.43942 | 1033 ft | 12 kts | 258° |
| 2026-05-05 04:26 | 33.64782 | -84.44048 | 1033 ft | 13 kts | 268° |
| 2026-05-05 04:26 | 33.64782 | -84.44171 | 1030 ft | 15 kts | 271° |
| 2026-05-05 04:26 | 33.64755 | -84.44301 | 1027 ft | 17 kts | 218° |
| 2026-05-05 04:27 | 33.64643 | -84.44328 | 1027 ft | 16 kts | 160° |
| 2026-05-05 04:27 | 33.64574 | -84.44238 | 1029 ft | 15 kts | 100° |
| 2026-05-05 04:27 | 33.64545 | -84.44106 | 1024 ft | 17 kts | 122° |
| 2026-05-05 04:27 | 33.64444 | -84.44047 | 1024 ft | 16 kts | 185° |
| 2026-05-05 04:28 | 33.64339 | -84.44089 | 1024 ft | 15 kts | 215° |
| 2026-05-05 04:28 | 33.64240 | -84.44117 | 1024 ft | 14 kts | 179° |
| 2026-05-05 04:28 | 33.64143 | -84.44117 | 1024 ft | 13 kts | 180° |
| 2026-05-05 04:28 | 33.64051 | -84.44117 | 1024 ft | 12 kts | 180° |
| 2026-05-05 04:29 | 33.63993 | -84.44118 | 1024 ft | 3 kts | 181° |
| 2026-05-05 04:29 | 33.63966 | -84.44118 | 1024 ft | 3 kts | 181° |
| 2026-05-05 04:29 | 33.63940 | -84.44119 | 1024 ft | 5 kts | 188° |
| 2026-05-05 04:29 | 33.63922 | -84.44157 | 1024 ft | 4 kts | 270° |
| 2026-05-05 04:30 | 33.63922 | -84.44174 | 1024 ft | 1 kts | 270° |
| 2026-05-05 04:30 | 33.63922 | -84.44186 | 1024 ft | 1 kts | 271° |
| 2026-05-05 04:30 | 33.63922 | -84.44192 | 1024 ft | 0 kts | 270° |